Time;durP1;ratioP1;P1;durP2;ratioP2;P2;SDS_P1;SDS_P2;PMS_P1;PMS_P2;Temp;Humidity;BMP_temperature;BMP_pressure;BME280_temperature;BME280_humidity;BME280_pressure;Samples;Min_cycle;Max_cycle;Signal;HPM_P1;HPM_P2
2023/06/24 00:02:19;;;;;;;49.28;28.30;;;;;;;-149.70;100.00;63222.41;4992903;28;20046;-66
2023/06/24 00:04:45;;;;;;;56.85;31.35;;;;;;;-149.70;100.00;63222.41;4991869;28;20042;-66
2023/06/24 00:07:12;;;;;;;67.85;33.80;;;;;;;-149.70;100.00;63222.41;4991838;28;20080;-65
2023/06/24 00:09:39;;;;;;;57.65;33.25;;;;;;;-149.70;100.00;63222.41;4993444;28;20042;-64
2023/06/24 00:12:06;;;;;;;58.55;35.13;;;;;;;-149.70;100.00;63222.41;4992573;28;20081;-64
2023/06/24 00:14:33;;;;;;;64.93;36.88;;;;;;;-149.70;100.00;63222.41;4991585;28;20058;-65
2023/06/24 00:16:59;;;;;;;66.38;38.58;;;;;;;-149.70;100.00;63222.41;4992650;28;20422;-66
2023/06/24 00:19:27;;;;;;;69.07;38.60;;;;;;;-149.70;100.00;63222.41;4991097;28;20400;-64
2023/06/24 00:21:54;;;;;;;79.60;39.72;;;;;;;-149.70;100.00;63222.41;4990129;28;20057;-65
2023/06/24 00:24:25;;;;;;;79.70;41.15;;;;;;;-149.70;100.00;63222.41;4992196;28;20085;-65
2023/06/24 00:26:53;;;;;;;66.03;38.45;;;;;;;-149.70;100.00;63222.41;4992080;28;20129;-65
2023/06/24 00:29:19;;;;;;;76.25;40.80;;;;;;;-149.70;100.00;63222.41;4991969;28;20050;-65
2023/06/24 00:31:46;;;;;;;74.47;41.70;;;;;;;-149.70;100.00;63222.41;4992375;28;20050;-65
2023/06/24 00:34:13;;;;;;;80.15;44.15;;;;;;;-149.70;100.00;63222.41;4991905;28;20072;-65
2023/06/24 00:36:40;;;;;;;76.47;43.97;;;;;;;-149.70;100.00;63222.41;5005258;28;20042;-65
2023/06/24 00:39:06;;;;;;;73.20;42.95;;;;;;;-149.70;100.00;63222.41;5010370;28;20185;-65
2023/06/24 00:41:34;;;;;;;83.65;42.10;;;;;;;-149.70;100.00;63222.41;5010638;28;20045;-64
2023/06/24 00:44:01;;;;;;;78.82;42.30;;;;;;;-149.70;100.00;63222.41;5010083;28;20514;-65
2023/06/24 00:46:28;;;;;;;84.43;43.65;;;;;;;-149.70;100.00;63222.41;5011076;28;20049;-65
2023/06/24 00:48:56;;;;;;;72.53;42.83;;;;;;;-149.70;100.00;63222.41;5010597;28;20045;-65
2023/06/24 00:51:30;;;;;;;80.72;43.35;;;;;;;-149.70;100.00;63222.41;4993369;28;20095;-65
2023/06/24 00:53:57;;;;;;;73.65;41.50;;;;;;;-149.70;100.00;63222.41;5010436;28;20057;-65
2023/06/24 00:56:33;;;;;;;80.75;44.15;;;;;;;-149.70;100.00;63222.41;5011444;28;20045;-65
2023/06/24 00:59:02;;;;;;;73.70;41.90;;;;;;;-149.70;100.00;63222.41;5010107;28;20054;-65
2023/06/24 01:01:33;;;;;;;84.18;44.30;;;;;;;-149.70;100.00;63222.41;5010254;28;20046;-63
2023/06/24 01:04:01;;;;;;;52.80;30.77;;;;;;;-149.70;100.00;63222.41;5010459;28;20481;-64
2023/06/24 01:07:22;;;;;;;65.22;40.72;;;;;;;-149.70;100.00;63222.41;5011621;28;20057;-64
2023/06/24 01:09:49;;;;;;;76.20;41.90;;;;;;;-149.70;100.00;63222.41;5010488;28;20049;-64
2023/06/24 01:12:16;;;;;;;75.90;41.63;;;;;;;-149.70;100.00;63222.41;5009709;28;20103;-64
2023/06/24 01:14:42;;;;;;;74.78;43.28;;;;;;;-149.70;100.00;63222.41;5010272;28;20486;-66
2023/06/24 01:17:16;;;;;;;79.70;42.53;;;;;;;-149.70;100.00;63222.41;5010603;28;20053;-64
2023/06/24 01:20:11;;;;;;;75.90;43.15;;;;;;;-149.70;100.00;63222.41;5010201;28;20069;-64
2023/06/24 01:22:46;;;;;;;81.05;40.58;;;;;;;-149.70;100.00;63222.41;5009942;28;20469;-65
2023/06/24 01:25:33;;;;;;;71.95;43.53;;;;;;;-149.70;100.00;63222.41;5009475;28;20107;-64
2023/06/24 01:28:34;;;;;;;78.82;43.50;;;;;;;-149.70;100.00;63222.41;5010044;28;20072;-64
2023/06/24 01:31:42;;;;;;;75.93;44.73;;;;;;;-149.70;100.00;63222.41;5010317;28;20494;-64
2023/06/24 01:34:24;;;;;;;84.63;45.08;;;;;;;-149.70;100.00;63222.41;4949724;28;20294;-63
2023/06/24 01:37:11;;;;;;;78.60;43.72;;;;;;;-149.70;100.00;63222.41;4934762;28;20107;-64
2023/06/24 01:39:46;;;;;;;87.13;45.33;;;;;;;-149.70;100.00;63222.41;4931269;28;20051;-63
2023/06/24 01:42:15;;;;;;;80.10;44.00;;;;;;;-149.70;100.00;63222.41;4930771;28;20082;-64
2023/06/24 01:44:45;;;;;;;76.05;45.28;;;;;;;-149.70;100.00;63222.41;4930757;28;20504;-64
2023/06/24 01:47:15;;;;;;;81.28;44.33;;;;;;;-149.70;100.00;63222.41;4931116;28;20067;-64
2023/06/24 01:49:43;;;;;;;81.70;45.97;;;;;;;-149.70;100.00;63222.41;4931052;28;20055;-64
2023/06/24 01:52:11;;;;;;;78.75;44.17;;;;;;;-149.70;100.00;63222.41;4931155;28;20616;-63
2023/06/24 01:54:41;;;;;;;76.20;44.53;;;;;;;-149.70;100.00;63222.41;4914479;28;20044;-64
2023/06/24 01:57:09;;;;;;;74.97;42.97;;;;;;;-149.70;100.00;63222.41;4930271;28;20052;-63
2023/06/24 01:59:42;;;;;;;76.00;41.35;;;;;;;-149.70;100.00;63222.41;4930669;28;20102;-65
2023/06/24 02:02:09;;;;;;;75.75;43.30;;;;;;;-149.70;100.00;63222.41;4930349;28;20044;-64
2023/06/24 02:04:38;;;;;;;62.63;39.88;;;;;;;-149.70;100.00;63222.41;4930336;28;20055;-64
2023/06/24 02:07:06;;;;;;;73.60;41.10;;;;;;;-149.70;100.00;63222.41;4935808;28;20481;-64
2023/06/24 02:09:34;;;;;;;58.63;37.10;;;;;;;-149.70;100.00;63222.41;4989481;28;20461;-63
2023/06/24 02:12:03;;;;;;;60.88;38.30;;;;;;;-149.70;100.00;63222.41;4989083;28;20054;-64
2023/06/24 02:14:31;;;;;;;60.90;38.67;;;;;;;-149.70;100.00;63222.41;4990557;28;20053;-64
2023/06/24 02:17:00;;;;;;;54.67;36.15;;;;;;;-149.70;100.00;63222.41;4990672;28;20511;-64
2023/06/24 02:19:30;;;;;;;63.88;34.80;;;;;;;-149.70;100.00;63222.41;4990773;28;20046;-64
2023/06/24 02:22:02;;;;;;;50.42;31.92;;;;;;;-149.70;100.00;63222.41;4990575;28;20054;-64
2023/06/24 02:24:29;;;;;;;51.33;32.38;;;;;;;-149.70;100.00;63222.41;4989239;28;20057;-66
2023/06/24 02:26:57;;;;;;;49.95;30.67;;;;;;;-149.70;100.00;63222.41;4989815;28;20073;-63
2023/06/24 02:29:27;;;;;;;51.35;31.30;;;;;;;-149.70;100.00;63222.41;4990368;28;20108;-63
2023/06/24 02:31:54;;;;;;;47.47;28.75;;;;;;;-149.70;100.00;63222.41;4989976;28;20050;-64
2023/06/24 02:34:23;;;;;;;45.85;27.35;;;;;;;-149.70;100.00;63222.41;4990738;28;20462;-63
2023/06/24 02:36:50;;;;;;;38.13;26.70;;;;;;;-149.70;100.00;63222.41;5005789;28;20050;-63
2023/06/24 02:39:16;;;;;;;37.53;26.02;;;;;;;-149.70;100.00;63222.41;5009459;28;20452;-64
2023/06/24 02:41:44;;;;;;;42.75;25.58;;;;;;;-149.70;100.00;63222.41;5009404;28;20561;-66
2023/06/24 02:44:11;;;;;;;38.67;25.33;;;;;;;-149.70;100.00;63222.41;5009032;28;20510;-65
2023/06/24 02:46:39;;;;;;;37.33;24.25;;;;;;;-149.70;100.00;63222.41;5009783;28;20050;-66
2023/06/24 02:49:08;;;;;;;37.42;23.88;;;;;;;-149.70;100.00;63222.41;5009389;28;20494;-64
2023/06/24 02:51:36;;;;;;;39.38;23.85;;;;;;;-149.70;100.00;63222.41;5008564;28;20466;-65
2023/06/24 02:54:03;;;;;;;33.58;22.75;;;;;;;-149.70;100.00;63222.41;5009266;28;20046;-63
2023/06/24 02:56:30;;;;;;;38.28;23.17;;;;;;;-149.70;100.00;63222.41;5009476;28;20077;-64
2023/06/24 02:58:56;;;;;;;41.50;25.65;;;;;;;-149.70;100.00;63222.41;5008898;28;20169;-65
2023/06/24 03:01:25;;;;;;;34.88;23.35;;;;;;;-149.70;100.00;63222.41;5008357;28;20045;-65
2023/06/24 03:03:56;;;;;;;36.22;23.35;;;;;;;-149.70;100.00;63222.41;5013003;28;20100;-66
2023/06/24 03:06:23;;;;;;;40.17;23.47;;;;;;;-149.70;100.00;63222.41;5012778;28;20046;-65
2023/06/24 03:08:50;;;;;;;40.17;24.75;;;;;;;-149.70;100.00;63222.41;5013591;28;20497;-63
2023/06/24 03:11:17;;;;;;;39.72;23.45;;;;;;;-149.70;100.00;63222.41;5012834;28;20066;-65
2023/06/24 03:13:44;;;;;;;40.78;23.65;;;;;;;-149.70;100.00;63222.41;5012365;28;20077;-65
2023/06/24 03:16:12;;;;;;;34.85;23.40;;;;;;;-149.70;100.00;63222.41;5012952;28;20050;-64
2023/06/24 03:18:42;;;;;;;37.88;24.88;;;;;;;-149.70;100.00;63222.41;5009603;28;20042;-65
2023/06/24 03:21:09;;;;;;;36.00;24.27;;;;;;;-149.70;100.00;63222.41;5013195;28;20136;-65
2023/06/24 03:23:36;;;;;;;36.40;23.50;;;;;;;-149.70;100.00;63222.41;5012638;28;20046;-66
2023/06/24 03:26:03;;;;;;;36.45;23.13;;;;;;;-149.70;100.00;63222.41;5012659;28;20080;-64
2023/06/24 03:28:30;;;;;;;34.47;22.13;;;;;;;-149.70;100.00;63222.41;5011908;28;20077;-64
2023/06/24 03:30:58;;;;;;;37.53;22.38;;;;;;;-149.70;100.00;63222.41;5012107;28;20073;-64
2023/06/24 03:33:26;;;;;;;41.17;24.20;;;;;;;-149.70;100.00;63222.41;5012737;28;20379;-64
2023/06/24 03:35:54;;;;;;;33.05;23.02;;;;;;;-149.70;100.00;63222.41;5004367;28;20050;-68
2023/06/24 03:38:21;;;;;;;36.45;22.63;;;;;;;-149.70;100.00;63222.41;4994054;28;20425;-63
2023/06/24 03:40:48;;;;;;;39.67;22.75;;;;;;;-149.70;100.00;63222.41;4991166;28;20074;-63
2023/06/24 03:43:14;;;;;;;33.40;22.15;;;;;;;-149.70;100.00;63222.41;4992153;28;20046;-64
2023/06/24 03:45:41;;;;;;;31.80;21.55;;;;;;;-149.70;100.00;63222.41;4992825;28;20053;-63
2023/06/24 03:48:08;;;;;;;29.48;21.50;;;;;;;-149.70;100.00;63222.41;4992762;28;20066;-63
2023/06/24 03:50:34;;;;;;;31.42;20.50;;;;;;;-149.70;100.00;63222.41;4993193;28;20046;-63
2023/06/24 03:53:02;;;;;;;28.60;20.35;;;;;;;-149.70;100.00;63222.41;4993004;28;20054;-63
2023/06/24 03:55:28;;;;;;;32.42;20.65;;;;;;;-149.70;100.00;63222.41;4993252;28;20050;-63
2023/06/24 03:57:55;;;;;;;32.63;21.83;;;;;;;-149.70;100.00;63222.41;4993284;28;20050;-63
2023/06/24 04:00:23;;;;;;;32.53;20.65;;;;;;;-149.70;100.00;63222.41;4993678;28;20046;-64
2023/06/24 04:02:49;;;;;;;28.50;19.73;;;;;;;-149.70;100.00;63222.41;4993273;28;20120;-64
2023/06/24 04:05:16;;;;;;;28.13;20.10;;;;;;;-149.70;100.00;63222.41;4990715;28;20050;-64
2023/06/24 04:07:46;;;;;;;30.30;19.02;;;;;;;-149.70;100.00;63222.41;4993030;28;20077;-64
2023/06/24 04:10:13;;;;;;;31.38;18.05;;;;;;;-149.70;100.00;63222.41;4992773;28;20058;-64
2023/06/24 04:12:40;;;;;;;29.60;19.40;;;;;;;-149.70;100.00;63222.41;4993016;28;20462;-64
2023/06/24 04:15:07;;;;;;;28.80;20.05;;;;;;;-149.70;100.00;63222.41;4992067;28;20054;-63
2023/06/24 04:17:34;;;;;;;29.27;19.70;;;;;;;-149.70;100.00;63222.41;4993163;28;20054;-63
2023/06/24 04:20:03;;;;;;;28.38;19.13;;;;;;;-149.70;100.00;63222.41;4992747;28;20054;-63
2023/06/24 04:22:29;;;;;;;30.23;19.08;;;;;;;-149.70;100.00;63222.41;4993080;28;20121;-63
2023/06/24 04:24:56;;;;;;;31.85;18.80;;;;;;;-149.70;100.00;63222.41;4992701;28;20054;-63
2023/06/24 04:27:22;;;;;;;37.42;19.25;;;;;;;-149.70;100.00;63222.41;4992957;28;20170;-63
2023/06/24 04:29:49;;;;;;;28.48;18.15;;;;;;;-149.70;100.00;63222.41;4992734;28;20109;-63
2023/06/24 04:32:16;;;;;;;26.02;17.98;;;;;;;-149.70;100.00;63222.41;4992723;28;20047;-64
2023/06/24 04:34:42;;;;;;;28.95;19.60;;;;;;;-149.70;100.00;63222.41;4992552;28;20038;-64
2023/06/24 04:37:09;;;;;;;29.75;18.40;;;;;;;-149.70;100.00;63222.41;5009316;28;20050;-64
2023/06/24 04:39:35;;;;;;;24.13;17.20;;;;;;;-149.70;100.00;63222.41;5011863;28;20469;-64
2023/06/24 04:42:02;;;;;;;35.42;24.52;;;;;;;-149.70;100.00;63222.41;5011706;28;20050;-64
2023/06/24 04:44:28;;;;;;;27.63;18.88;;;;;;;-149.70;100.00;63222.41;5011341;28;20069;-64
2023/06/24 04:46:55;;;;;;;27.58;18.38;;;;;;;-149.70;100.00;63222.41;5011606;28;20049;-63
2023/06/24 04:49:21;;;;;;;25.55;18.35;;;;;;;-149.70;100.00;63222.41;5012252;28;20049;-64
2023/06/24 04:51:48;;;;;;;31.10;18.20;;;;;;;-149.70;100.00;63222.41;5011127;28;20468;-65
2023/06/24 04:54:14;;;;;;;33.45;18.73;;;;;;;-149.70;100.00;63222.41;5011276;28;20046;-65
2023/06/24 04:56:41;;;;;;;22.77;17.35;;;;;;;-149.70;100.00;63222.41;5010387;28;20045;-64
2023/06/24 04:59:08;;;;;;;31.17;17.17;;;;;;;-149.70;100.00;63222.41;5011614;28;20050;-64
2023/06/24 05:01:34;;;;;;;27.63;17.63;;;;;;;-149.70;100.00;63222.41;5011638;28;20073;-64
2023/06/24 05:04:01;;;;;;;30.33;17.55;;;;;;;-149.70;100.00;63222.41;5011103;28;20467;-64
2023/06/24 05:06:28;;;;;;;24.00;16.70;;;;;;;-149.70;100.00;63222.41;5011489;28;20554;-64
2023/06/24 05:08:54;;;;;;;29.10;17.75;;;;;;;-149.70;100.00;63222.41;5011301;28;20060;-65
2023/06/24 05:11:21;;;;;;;27.52;18.35;;;;;;;-149.70;100.00;63222.41;5011845;28;20469;-64
2023/06/24 05:13:47;;;;;;;34.83;21.85;;;;;;;-149.70;100.00;63222.41;5010805;28;20046;-65
2023/06/24 05:16:14;;;;;;;33.70;19.55;;;;;;;-149.70;100.00;63222.41;5011111;28;20371;-65
2023/06/24 05:18:40;;;;;;;31.60;19.23;;;;;;;-149.70;100.00;63222.41;5011121;28;20115;-64
2023/06/24 05:21:07;;;;;;;37.63;20.45;;;;;;;-149.70;100.00;63222.41;5011150;28;20469;-64
2023/06/24 05:23:33;;;;;;;41.42;21.67;;;;;;;-149.70;100.00;63222.41;5011086;28;20284;-65
2023/06/24 05:26:00;;;;;;;31.05;18.83;;;;;;;-149.70;100.00;63222.41;5010542;28;20053;-64
2023/06/24 05:28:26;;;;;;;38.40;20.25;;;;;;;-149.70;100.00;63222.41;5010839;28;20054;-64
2023/06/24 05:30:53;;;;;;;36.25;19.73;;;;;;;-149.70;100.00;63222.41;5010990;28;20069;-68
2023/06/24 05:33:20;;;;;;;30.67;17.35;;;;;;;-149.70;100.00;63222.41;5011199;28;20048;-64
2023/06/24 05:35:46;;;;;;;25.27;16.90;;;;;;;-149.70;100.00;63222.41;5003700;28;20074;-65
2023/06/24 05:38:13;;;;;;;26.95;16.02;;;;;;;-149.70;100.00;63222.41;4991739;28;20046;-64
2023/06/24 05:40:39;;;;;;;30.15;16.27;;;;;;;-149.70;100.00;63222.41;4991851;28;20046;-63
2023/06/24 05:43:06;;;;;;;29.50;15.77;;;;;;;-149.70;100.00;63222.41;4991508;28;20054;-64
2023/06/24 05:45:32;;;;;;;29.50;15.90;;;;;;;-149.70;100.00;63222.41;4991327;28;20133;-63
2023/06/24 05:47:59;;;;;;;26.00;15.43;;;;;;;-149.70;100.00;63222.41;4990850;28;20076;-64
2023/06/24 05:50:26;;;;;;;25.30;14.88;;;;;;;-149.70;100.00;63222.41;4991268;28;20068;-65
2023/06/24 05:52:52;;;;;;;22.92;14.00;;;;;;;-149.70;100.00;63222.41;4991895;28;20101;-64
2023/06/24 05:55:19;;;;;;;26.85;16.02;;;;;;;-149.70;100.00;63222.41;4991563;28;20046;-64
2023/06/24 05:57:46;;;;;;;21.15;13.68;;;;;;;-149.70;100.00;63222.41;4991228;28;20077;-65
2023/06/24 06:00:13;;;;;;;23.27;14.48;;;;;;;-149.70;100.00;63222.41;4990734;28;20109;-64
2023/06/24 06:02:39;;;;;;;19.67;13.23;;;;;;;-149.70;100.00;63222.41;4991402;28;20051;-65
2023/06/24 06:05:06;;;;;;;22.35;14.57;;;;;;;-149.70;100.00;63222.41;4990960;28;20388;-64
2023/06/24 06:07:33;;;;;;;22.48;13.88;;;;;;;-149.70;100.00;63222.41;4991389;28;20096;-64
2023/06/24 06:10:00;;;;;;;21.25;12.68;;;;;;;-149.70;100.00;63222.41;4991235;28;20050;-64
2023/06/24 06:12:27;;;;;;;21.80;13.55;;;;;;;-149.70;100.00;63222.41;4990749;28;20047;-64
2023/06/24 06:14:53;;;;;;;17.15;12.32;;;;;;;-149.70;100.00;63222.41;4991157;28;20077;-68
2023/06/24 06:17:20;;;;;;;24.02;12.63;;;;;;;-149.70;100.00;63222.41;4991823;28;20081;-63
2023/06/24 06:19:47;;;;;;;18.73;13.18;;;;;;;-149.70;100.00;63222.41;4990888;28;20046;-64
2023/06/24 06:22:17;;;;;;;18.70;12.73;;;;;;;-149.70;100.00;63222.41;4991249;28;20057;-64
2023/06/24 06:24:44;;;;;;;17.13;13.18;;;;;;;-149.70;100.00;63222.41;4991232;28;20046;-63
2023/06/24 06:27:14;;;;;;;24.85;12.20;;;;;;;-149.70;100.00;63222.41;4991307;28;20051;-63
2023/06/24 06:29:40;;;;;;;18.60;12.10;;;;;;;-149.70;100.00;63222.41;4990855;28;20070;-64
2023/06/24 06:32:07;;;;;;;21.15;11.55;;;;;;;-149.70;100.00;63222.41;4991044;28;20054;-64
2023/06/24 06:34:34;;;;;;;17.52;11.93;;;;;;;-149.70;100.00;63222.41;4991087;28;20454;-63
2023/06/24 06:37:01;;;;;;;14.82;11.43;;;;;;;-149.70;100.00;63222.41;5008413;28;20454;-63
2023/06/24 06:39:28;;;;;;;16.55;10.75;;;;;;;-149.70;100.00;63222.41;5013872;28;20104;-63
2023/06/24 06:41:54;;;;;;;17.00;12.20;;;;;;;-149.70;100.00;63222.41;5014290;28;20053;-63
2023/06/24 06:44:21;;;;;;;24.90;13.30;;;;;;;-149.70;100.00;63222.41;5013966;28;20100;-65
2023/06/24 06:46:47;;;;;;;24.88;11.40;;;;;;;-149.70;100.00;63222.41;5013543;28;20045;-63
2023/06/24 06:49:14;;;;;;;18.35;11.90;;;;;;;-149.70;100.00;63222.41;5013941;28;20053;-64
2023/06/24 06:51:40;;;;;;;13.55;10.48;;;;;;;-149.70;100.00;63222.41;5013966;28;20103;-65
2023/06/24 06:54:07;;;;;;;20.70;10.70;;;;;;;-149.70;100.00;63222.41;5013858;28;20077;-64
2023/06/24 06:56:34;;;;;;;13.73;9.73;;;;;;;-149.70;100.00;63222.41;5013839;28;20042;-64
2023/06/24 06:59:01;;;;;;;13.73;8.93;;;;;;;-149.70;100.00;63222.41;5013301;28;20061;-64
2023/06/24 07:01:27;;;;;;;16.55;9.50;;;;;;;-149.70;100.00;63222.41;5013789;28;20046;-64
2023/06/24 07:03:54;;;;;;;14.80;8.35;;;;;;;-149.70;100.00;63222.41;5013628;28;20120;-68
2023/06/24 07:06:20;;;;;;;12.13;8.85;;;;;;;-149.70;100.00;63222.41;5014131;28;20421;-64
2023/06/24 07:08:47;;;;;;;14.30;7.97;;;;;;;-149.70;100.00;63222.41;5013463;28;20410;-64
2023/06/24 07:11:14;;;;;;;14.98;7.97;;;;;;;-149.70;100.00;63222.41;5013286;28;20050;-64
2023/06/24 07:13:40;;;;;;;11.98;8.50;;;;;;;-149.70;100.00;63222.41;5013379;28;20161;-64
2023/06/24 07:16:07;;;;;;;17.27;7.75;;;;;;;-149.70;100.00;63222.41;5012322;28;20483;-64
2023/06/24 07:18:33;;;;;;;9.68;6.50;;;;;;;-149.70;100.00;63222.41;5013756;28;20046;-63
2023/06/24 07:21:01;;;;;;;14.90;7.70;;;;;;;-149.70;100.00;63222.41;5013406;28;20053;-63
2023/06/24 07:23:28;;;;;;;10.85;7.18;;;;;;;-149.70;100.00;63222.41;5013334;28;20457;-63
2023/06/24 07:25:54;;;;;;;16.88;6.85;;;;;;;-149.70;100.00;63222.41;5013422;28;20326;-63
2023/06/24 07:28:21;;;;;;;8.63;7.10;;;;;;;-149.70;100.00;63222.41;5013407;28;20107;-63
2023/06/24 07:30:48;;;;;;;13.35;6.32;;;;;;;-149.70;100.00;63222.41;5013287;28;20070;-63
2023/06/24 07:33:14;;;;;;;11.35;6.57;;;;;;;-149.70;100.00;63222.41;5013212;28;20057;-63
2023/06/24 07:35:41;;;;;;;11.55;5.78;;;;;;;-149.70;100.00;63222.41;5012983;28;20088;-63
2023/06/24 07:38:08;;;;;;;11.13;6.75;;;;;;;-149.70;100.00;63222.41;5013020;28;20557;-64
2023/06/24 07:40:34;;;;;;;8.27;5.68;;;;;;;-149.70;100.00;63222.41;4996197;28;20449;-64
2023/06/24 07:43:01;;;;;;;10.20;6.10;;;;;;;-149.70;100.00;63222.41;5012828;28;20046;-64
2023/06/24 07:45:27;;;;;;;15.82;5.55;;;;;;;-149.70;100.00;63222.41;5012899;28;20042;-64
2023/06/24 07:47:54;;;;;;;13.77;6.25;;;;;;;-149.70;100.00;63222.41;5012611;28;20112;-67
2023/06/24 07:50:21;;;;;;;9.10;5.50;;;;;;;-149.70;100.00;63222.41;5013190;28;20510;-63
2023/06/24 07:52:47;;;;;;;7.38;4.38;;;;;;;-149.70;100.00;63222.41;5012955;28;20103;-64
2023/06/24 07:55:14;;;;;;;8.88;5.25;;;;;;;-149.70;100.00;63222.41;5012908;28;20105;-63
2023/06/24 07:57:45;;;;;;;7.40;4.10;;;;;;;-149.70;100.00;63222.41;5012607;28;20565;-64
2023/06/24 08:00:14;;;;;;;7.28;4.60;;;;;;;-149.70;100.00;63222.41;5016252;28;20120;-73
2023/06/24 08:02:58;;;;;;;8.73;4.38;;;;;;;-149.70;100.00;63222.41;5010660;28;20049;-73
2023/06/24 08:05:25;;;;;;;8.32;4.60;;;;;;;-149.70;100.00;63222.41;5012616;28;20050;-72
2023/06/24 08:07:52;;;;;;;8.50;5.40;;;;;;;-149.70;100.00;63222.41;5013033;28;20407;-73
2023/06/24 08:10:19;;;;;;;10.85;5.65;;;;;;;-149.70;100.00;63222.41;4996415;28;20077;-73
2023/06/24 08:12:45;;;;;;;12.63;6.80;;;;;;;-149.70;100.00;63222.41;4992920;28;20046;-73
2023/06/24 08:15:12;;;;;;;10.77;6.22;;;;;;;-149.70;100.00;63222.41;4993268;28;20046;-73
2023/06/24 08:17:39;;;;;;;13.70;5.32;;;;;;;-149.70;100.00;63222.41;4999267;28;20112;-73
2023/06/24 08:20:06;;;;;;;11.15;4.82;;;;;;;-149.70;100.00;63222.41;5012153;28;20053;-74
2023/06/24 08:22:33;;;;;;;9.70;5.15;;;;;;;-149.70;100.00;63222.41;5012206;28;20053;-74
2023/06/24 08:25:00;;;;;;;9.02;5.30;;;;;;;-149.70;100.00;63222.41;5012006;28;20081;-73
2023/06/24 08:27:26;;;;;;;9.95;4.90;;;;;;;-149.70;100.00;63222.41;5012014;28;20108;-75
2023/06/24 08:29:53;;;;;;;9.48;5.00;;;;;;;-149.70;100.00;63222.41;5012533;28;20133;-75
2023/06/24 08:32:19;;;;;;;10.45;5.30;;;;;;;-149.70;100.00;63222.41;5012213;28;20088;-75
2023/06/24 08:34:46;;;;;;;11.65;4.47;;;;;;;-149.70;100.00;63222.41;4991520;28;20046;-73
2023/06/24 08:37:13;;;;;;;11.75;5.22;;;;;;;-149.70;100.00;63222.41;4992930;28;20046;-74
2023/06/24 08:39:39;;;;;;;9.20;4.65;;;;;;;-149.70;100.00;63222.41;5006668;28;20073;-74
2023/06/24 08:42:06;;;;;;;8.43;4.20;;;;;;;-149.70;100.00;63222.41;4990541;28;20050;-74
2023/06/24 08:44:33;;;;;;;10.93;4.60;;;;;;;-149.70;100.00;63222.41;4992771;28;20454;-75
2023/06/24 08:46:59;;;;;;;9.05;4.18;;;;;;;-149.70;100.00;63222.41;4992005;28;20081;-74
2023/06/24 08:49:29;;;;;;;10.30;4.25;;;;;;;-149.70;100.00;63222.41;4991229;28;20050;-74
2023/06/24 08:52:07;;;;;;;7.75;4.05;;;;;;;-149.70;100.00;63222.41;4992491;28;20046;-74
2023/06/24 08:54:36;;;;;;;8.20;4.43;;;;;;;-149.70;100.00;63222.41;4992510;28;20050;-75
2023/06/24 08:57:05;;;;;;;7.85;4.30;;;;;;;-149.70;100.00;63222.41;4992464;28;20050;-75
2023/06/24 08:59:33;;;;;;;5.15;3.63;;;;;;;-149.70;100.00;63222.41;4991789;28;20100;-76
2023/06/24 09:02:00;;;;;;;11.15;5.03;;;;;;;-149.70;100.00;63222.41;4992158;28;20100;-74
2023/06/24 09:04:27;;;;;;;9.13;3.80;;;;;;;-149.70;100.00;63222.41;4992264;28;20043;-74
2023/06/24 09:06:53;;;;;;;9.20;4.15;;;;;;;-149.70;100.00;63222.41;4992665;28;20112;-74
2023/06/24 09:09:24;;;;;;;9.10;4.28;;;;;;;-149.70;100.00;63222.41;4994314;28;20042;-75
2023/06/24 09:11:52;;;;;;;8.65;3.97;;;;;;;-149.70;100.00;63222.41;5011690;28;20050;-74
2023/06/24 09:14:19;;;;;;;6.70;4.00;;;;;;;-149.70;100.00;63222.41;5011215;28;20402;-75
2023/06/24 09:17:11;;;;;;;9.63;3.53;;;;;;;-149.70;100.00;63222.41;5011467;28;20046;-75
2023/06/24 09:19:39;;;;;;;7.00;4.15;;;;;;;-149.70;100.00;63222.41;5007496;28;20100;-73
2023/06/24 09:22:07;;;;;;;11.43;3.50;;;;;;;-149.70;100.00;63222.41;5011180;28;20069;-76
2023/06/24 09:24:34;;;;;;;5.30;4.00;;;;;;;-149.70;100.00;63222.41;5011150;28;20042;-75
2023/06/24 09:27:01;;;;;;;5.40;3.22;;;;;;;-149.70;100.00;63222.41;5010923;28;20455;-75
2023/06/24 09:29:32;;;;;;;8.48;3.58;;;;;;;-149.70;100.00;63222.41;4993649;28;20077;-73
2023/06/24 09:31:59;;;;;;;5.85;3.00;;;;;;;-149.70;100.00;63222.41;5011075;28;20465;-74
2023/06/24 09:34:28;;;;;;;4.55;3.25;;;;;;;-149.70;100.00;63222.41;5010918;28;20045;-75
2023/06/24 09:36:56;;;;;;;8.40;2.90;;;;;;;-149.70;100.00;63222.41;5011057;28;20054;-72
2023/06/24 09:39:30;;;;;;;6.88;3.55;;;;;;;-149.70;100.00;63222.41;5011457;28;20073;-72
2023/06/24 09:41:58;;;;;;;11.02;5.47;;;;;;;-149.70;100.00;63222.41;5010593;28;20414;-74
2023/06/24 09:44:26;;;;;;;5.63;2.70;;;;;;;-149.70;100.00;63222.41;5010732;28;20073;-73
2023/06/24 09:46:54;;;;;;;4.35;2.65;;;;;;;-149.70;100.00;63222.41;5011171;28;20483;-76
2023/06/24 09:49:20;;;;;;;7.03;2.60;;;;;;;-149.70;100.00;63222.41;5010942;28;20038;-74
2023/06/24 09:51:49;;;;;;;8.63;2.58;;;;;;;-149.70;100.00;63222.41;5010367;28;20049;-73
2023/06/24 09:54:16;;;;;;;7.53;2.80;;;;;;;-149.70;100.00;63222.41;5011008;28;20042;-75
2023/06/24 09:56:46;;;;;;;7.22;2.97;;;;;;;-149.70;100.00;63222.41;5010998;28;20133;-72
2023/06/24 09:59:13;;;;;;;6.20;2.33;;;;;;;-149.70;100.00;63222.41;5011103;28;20050;-75
2023/06/24 10:01:43;;;;;;;11.40;2.60;;;;;;;-149.70;100.00;63222.41;5010766;28;20049;-73
2023/06/24 10:04:15;;;;;;;5.50;2.55;;;;;;;-149.70;100.00;63222.41;5011103;28;20105;-73
2023/06/24 10:06:44;;;;;;;6.70;2.75;;;;;;;-149.70;100.00;63222.41;5011169;28;20490;-71
2023/06/24 10:09:13;;;;;;;6.97;2.70;;;;;;;-149.70;100.00;63222.41;5010958;28;20133;-73
2023/06/24 10:11:44;;;;;;;6.03;2.50;;;;;;;-149.70;100.00;63222.41;5013094;28;20413;-74
2023/06/24 10:14:11;;;;;;;5.13;2.53;;;;;;;-149.70;100.00;63222.41;5014386;28;20045;-73
2023/06/24 10:16:38;;;;;;;2.92;2.10;;;;;;;-149.70;100.00;63222.41;5014943;28;20044;-73
2023/06/24 10:19:05;;;;;;;7.70;2.75;;;;;;;-149.70;100.00;63222.41;5014786;28;20057;-73
2023/06/24 10:21:52;;;;;;;6.10;2.47;;;;;;;-149.70;100.00;63222.41;5014814;28;20045;-72
2023/06/24 10:24:37;;;;;;;9.60;3.38;;;;;;;-149.70;100.00;63222.41;5014551;28;20529;-71
2023/06/24 10:27:05;;;;;;;3.72;3.30;;;;;;;-149.70;100.00;63222.41;5014257;28;20145;-74
2023/06/24 10:29:39;;;;;;;6.00;3.08;;;;;;;-149.70;100.00;63222.41;5014460;28;20052;-72
2023/06/24 10:32:07;;;;;;;10.98;7.35;;;;;;;-149.70;100.00;63222.41;5014233;28;20049;-72
2023/06/24 10:34:40;;;;;;;8.07;3.35;;;;;;;-149.70;100.00;63222.41;5014732;28;20050;-74
2023/06/24 10:37:17;;;;;;;8.30;2.35;;;;;;;-149.70;100.00;63222.41;5014342;28;20100;-72
2023/06/24 10:39:51;;;;;;;4.78;2.60;;;;;;;-149.70;100.00;63222.41;5014091;28;20042;-72
2023/06/24 10:42:37;;;;;;;7.53;2.30;;;;;;;-149.70;100.00;63222.41;5013982;28;20476;-72
2023/06/24 10:45:09;;;;;;;5.00;2.13;;;;;;;-149.70;100.00;63222.41;5013687;28;20049;-72
2023/06/24 10:47:41;;;;;;;4.50;2.22;;;;;;;-149.70;100.00;63222.41;5013796;28;20053;-72
2023/06/24 10:50:10;;;;;;;4.70;2.40;;;;;;;-149.70;100.00;63222.41;4996607;28;20042;-72
2023/06/24 10:52:39;;;;;;;6.18;2.72;;;;;;;-149.70;100.00;63222.41;5014036;28;20468;-72
2023/06/24 10:55:07;;;;;;;12.75;3.28;;;;;;;-149.70;100.00;63222.41;5013924;28;20117;-72
2023/06/24 10:57:34;;;;;;;5.95;2.67;;;;;;;-149.70;100.00;63222.41;5013962;28;20104;-72
2023/06/24 11:00:03;;;;;;;6.28;2.42;;;;;;;-149.70;100.00;63222.41;5013986;28;20045;-72
2023/06/24 11:02:29;;;;;;;5.68;2.90;;;;;;;-149.70;100.00;63222.41;5013811;28;20041;-71
2023/06/24 11:05:01;;;;;;;7.32;2.90;;;;;;;-149.70;100.00;63222.41;5013308;28;20050;-72
2023/06/24 11:07:36;;;;;;;4.30;2.50;;;;;;;-149.70;100.00;63222.41;5013488;28;20096;-72